sensor_id;sensor_type;location;lat;lon;timestamp;P1;durP1;ratioP1;P2;durP2;ratioP2
22219;SDS011;11279;48.364;10.904;2022-10-16T00:00:26;7.50;;;3.10;;
22219;SDS011;11279;48.364;10.904;2022-10-16T00:01:27;8.23;;;2.90;;
22219;SDS011;11279;48.364;10.904;2022-10-16T00:02:28;5.50;;;2.80;;
22219;SDS011;11279;48.364;10.904;2022-10-16T00:03:29;5.10;;;2.70;;
22219;SDS011;11279;48.364;10.904;2022-10-16T00:04:29;5.87;;;2.67;;
22219;SDS011;11279;48.364;10.904;2022-10-16T00:05:30;7.30;;;3.47;;
22219;SDS011;11279;48.364;10.904;2022-10-16T00:06:30;5.77;;;3.13;;
22219;SDS011;11279;48.364;10.904;2022-10-16T00:07:31;5.73;;;2.87;;
22219;SDS011;11279;48.364;10.904;2022-10-16T00:08:31;6.10;;;3.33;;
22219;SDS011;11279;48.364;10.904;2022-10-16T00:09:32;8.30;;;3.17;;
22219;SDS011;11279;48.364;10.904;2022-10-16T00:10:32;4.53;;;2.70;;
22219;SDS011;11279;48.364;10.904;2022-10-16T00:11:34;6.30;;;3.10;;
22219;SDS011;11279;48.364;10.904;2022-10-16T00:12:38;4.78;;;3.00;;
22219;SDS011;11279;48.364;10.904;2022-10-16T00:13:39;6.97;;;3.00;;
22219;SDS011;11279;48.364;10.904;2022-10-16T00:14:40;3.83;;;2.55;;
22219;SDS011;11279;48.364;10.904;2022-10-16T00:15:42;5.00;;;2.92;;
22219;SDS011;11279;48.364;10.904;2022-10-16T00:16:44;4.22;;;2.85;;
22219;SDS011;11279;48.364;10.904;2022-10-16T00:17:44;7.23;;;3.70;;
22219;SDS011;11279;48.364;10.904;2022-10-16T00:18:44;6.63;;;3.10;;
22219;SDS011;11279;48.364;10.904;2022-10-16T00:19:45;11.47;;;4.23;;
22219;SDS011;11279;48.364;10.904;2022-10-16T00:20:45;8.03;;;3.03;;
22219;SDS011;11279;48.364;10.904;2022-10-16T00:21:46;6.53;;;3.30;;
22219;SDS011;11279;48.364;10.904;2022-10-16T00:22:46;7.83;;;3.00;;
22219;SDS011;11279;48.364;10.904;2022-10-16T00:23:49;8.00;;;2.93;;
22219;SDS011;11279;48.364;10.904;2022-10-16T00:24:51;6.85;;;3.20;;
22219;SDS011;11279;48.364;10.904;2022-10-16T00:25:55;6.73;;;3.53;;
22219;SDS011;11279;48.364;10.904;2022-10-16T00:26:56;5.25;;;3.00;;
22219;SDS011;11279;48.364;10.904;2022-10-16T00:27:57;4.83;;;3.00;;
22219;SDS011;11279;48.364;10.904;2022-10-16T00:28:57;6.10;;;3.50;;
22219;SDS011;11279;48.364;10.904;2022-10-16T00:29:58;5.20;;;3.20;;
22219;SDS011;11279;48.364;10.904;2022-10-16T00:30:58;5.23;;;2.83;;
22219;SDS011;11279;48.364;10.904;2022-10-16T00:31:59;7.67;;;2.90;;
22219;SDS011;11279;48.364;10.904;2022-10-16T00:32:59;6.23;;;3.10;;
22219;SDS011;11279;48.364;10.904;2022-10-16T00:34:00;4.83;;;3.30;;
22219;SDS011;11279;48.364;10.904;2022-10-16T00:35:01;4.30;;;2.93;;
22219;SDS011;11279;48.364;10.904;2022-10-16T00:36:03;6.97;;;2.78;;
22219;SDS011;11279;48.364;10.904;2022-10-16T00:37:05;6.13;;;2.95;;
22219;SDS011;11279;48.364;10.904;2022-10-16T00:38:05;5.77;;;2.80;;
22219;SDS011;11279;48.364;10.904;2022-10-16T00:39:06;5.67;;;2.80;;
22219;SDS011;11279;48.364;10.904;2022-10-16T00:40:06;5.47;;;2.93;;
22219;SDS011;11279;48.364;10.904;2022-10-16T00:41:09;6.10;;;2.80;;
22219;SDS011;11279;48.364;10.904;2022-10-16T00:42:14;4.20;;;2.58;;
22219;SDS011;11279;48.364;10.904;2022-10-16T00:44:41;6.63;;;2.72;;
22219;SDS011;11279;48.364;10.904;2022-10-16T00:45:42;4.90;;;2.50;;
22219;SDS011;11279;48.364;10.904;2022-10-16T00:46:42;5.10;;;2.63;;
22219;SDS011;11279;48.364;10.904;2022-10-16T00:47:43;4.80;;;3.10;;
22219;SDS011;11279;48.364;10.904;2022-10-16T00:50:41;7.00;;;2.70;;
22219;SDS011;11279;48.364;10.904;2022-10-16T00:51:33;5.05;;;2.72;;
22219;SDS011;11279;48.364;10.904;2022-10-16T00:52:35;4.70;;;2.60;;
22219;SDS011;11279;48.364;10.904;2022-10-16T00:53:37;3.83;;;2.85;;
22219;SDS011;11279;48.364;10.904;2022-10-16T00:54:37;4.43;;;2.57;;
22219;SDS011;11279;48.364;10.904;2022-10-16T00:55:37;6.03;;;2.77;;
22219;SDS011;11279;48.364;10.904;2022-10-16T00:56:38;3.77;;;2.60;;
22219;SDS011;11279;48.364;10.904;2022-10-16T00:57:39;5.13;;;2.53;;
22219;SDS011;11279;48.364;10.904;2022-10-16T00:58:39;4.77;;;3.03;;
22219;SDS011;11279;48.364;10.904;2022-10-16T00:59:41;4.43;;;2.77;;
22219;SDS011;11279;48.364;10.904;2022-10-16T01:00:42;3.50;;;2.53;;
22219;SDS011;11279;48.364;10.904;2022-10-16T01:01:42;6.87;;;2.57;;
22219;SDS011;11279;48.364;10.904;2022-10-16T01:02:43;3.83;;;2.37;;
22219;SDS011;11279;48.364;10.904;2022-10-16T01:03:43;5.93;;;2.67;;
22219;SDS011;11279;48.364;10.904;2022-10-16T01:04:45;5.23;;;2.80;;
22219;SDS011;11279;48.364;10.904;2022-10-16T01:05:54;5.97;;;2.90;;
22219;SDS011;11279;48.364;10.904;2022-10-16T01:07:09;4.47;;;2.75;;
22219;SDS011;11279;48.364;10.904;2022-10-16T01:08:22;5.40;;;2.90;;
22219;SDS011;11279;48.364;10.904;2022-10-16T01:09:39;6.03;;;2.92;;
22219;SDS011;11279;48.364;10.904;2022-10-16T01:10:55;4.65;;;2.80;;
22219;SDS011;11279;48.364;10.904;2022-10-16T01:12:05;4.88;;;2.85;;
22219;SDS011;11279;48.364;10.904;2022-10-16T01:13:16;5.97;;;2.80;;
22219;SDS011;11279;48.364;10.904;2022-10-16T01:15:41;5.03;;;2.47;;
22219;SDS011;11279;48.364;10.904;2022-10-16T01:16:44;5.68;;;2.78;;
22219;SDS011;11279;48.364;10.904;2022-10-16T01:17:58;5.38;;;2.50;;
22219;SDS011;11279;48.364;10.904;2022-10-16T01:20:12;7.68;;;2.60;;
22219;SDS011;11279;48.364;10.904;2022-10-16T01:21:27;5.40;;;2.42;;
22219;SDS011;11279;48.364;10.904;2022-10-16T01:25:08;4.38;;;2.30;;
22219;SDS011;11279;48.364;10.904;2022-10-16T01:27:40;3.08;;;2.22;;
22219;SDS011;11279;48.364;10.904;2022-10-16T01:28:45;4.43;;;2.40;;
22219;SDS011;11279;48.364;10.904;2022-10-16T01:30:08;6.03;;;2.65;;
22219;SDS011;11279;48.364;10.904;2022-10-16T01:31:11;6.82;;;2.55;;
22219;SDS011;11279;48.364;10.904;2022-10-16T01:33:43;7.18;;;2.72;;
22219;SDS011;11279;48.364;10.904;2022-10-16T01:34:48;8.95;;;2.63;;
22219;SDS011;11279;48.364;10.904;2022-10-16T01:35:52;6.35;;;2.60;;
22219;SDS011;11279;48.364;10.904;2022-10-16T01:36:56;7.07;;;3.33;;
22219;SDS011;11279;48.364;10.904;2022-10-16T01:38:06;8.02;;;3.08;;
22219;SDS011;11279;48.364;10.904;2022-10-16T01:39:10;5.95;;;2.80;;
22219;SDS011;11279;48.364;10.904;2022-10-16T01:40:12;5.63;;;2.55;;
22219;SDS011;11279;48.364;10.904;2022-10-16T01:42:17;4.45;;;2.70;;
22219;SDS011;11279;48.364;10.904;2022-10-16T01:43:22;4.55;;;2.80;;
22219;SDS011;11279;48.364;10.904;2022-10-16T01:44:29;6.60;;;2.72;;
22219;SDS011;11279;48.364;10.904;2022-10-16T01:45:32;4.78;;;2.72;;
22219;SDS011;11279;48.364;10.904;2022-10-16T01:46:34;7.03;;;2.60;;
22219;SDS011;11279;48.364;10.904;2022-10-16T01:47:36;4.63;;;2.65;;
22219;SDS011;11279;48.364;10.904;2022-10-16T01:48:36;6.57;;;2.77;;
22219;SDS011;11279;48.364;10.904;2022-10-16T01:49:38;7.40;;;3.08;;
22219;SDS011;11279;48.364;10.904;2022-10-16T01:50:39;5.25;;;2.70;;
22219;SDS011;11279;48.364;10.904;2022-10-16T01:51:42;3.97;;;2.70;;
22219;SDS011;11279;48.364;10.904;2022-10-16T01:52:45;4.22;;;2.70;;
22219;SDS011;11279;48.364;10.904;2022-10-16T01:53:49;7.78;;;2.85;;
22219;SDS011;11279;48.364;10.904;2022-10-16T01:54:54;5.82;;;3.28;;
22219;SDS011;11279;48.364;10.904;2022-10-16T01:55:55;4.72;;;2.50;;
22219;SDS011;11279;48.364;10.904;2022-10-16T01:56:56;6.72;;;2.97;;
22219;SDS011;11279;48.364;10.904;2022-10-16T01:57:58;8.57;;;2.95;;
22219;SDS011;11279;48.364;10.904;2022-10-16T01:59:02;6.70;;;3.65;;
22219;SDS011;11279;48.364;10.904;2022-10-16T02:00:07;11.27;;;3.40;;
22219;SDS011;11279;48.364;10.904;2022-10-16T02:01:09;6.90;;;2.60;;
22219;SDS011;11279;48.364;10.904;2022-10-16T02:02:11;4.93;;;2.97;;
22219;SDS011;11279;48.364;10.904;2022-10-16T02:03:14;8.43;;;2.88;;
22219;SDS011;11279;48.364;10.904;2022-10-16T02:05:44;5.18;;;2.67;;
22219;SDS011;11279;48.364;10.904;2022-10-16T02:06:47;5.45;;;2.80;;
22219;SDS011;11279;48.364;10.904;2022-10-16T02:07:48;8.13;;;3.07;;
22219;SDS011;11279;48.364;10.904;2022-10-16T02:08:48;6.47;;;3.08;;
22219;SDS011;11279;48.364;10.904;2022-10-16T02:09:49;5.27;;;2.80;;
22219;SDS011;11279;48.364;10.904;2022-10-16T02:10:50;6.13;;;3.03;;
22219;SDS011;11279;48.364;10.904;2022-10-16T02:11:51;7.63;;;3.17;;
22219;SDS011;11279;48.364;10.904;2022-10-16T02:12:56;7.05;;;2.65;;
22219;SDS011;11279;48.364;10.904;2022-10-16T02:14:04;8.18;;;2.75;;
22219;SDS011;11279;48.364;10.904;2022-10-16T02:15:06;6.60;;;2.80;;
22219;SDS011;11279;48.364;10.904;2022-10-16T02:16:07;6.53;;;3.08;;
22219;SDS011;11279;48.364;10.904;2022-10-16T02:17:12;6.75;;;2.75;;
22219;SDS011;11279;48.364;10.904;2022-10-16T02:18:14;6.60;;;3.30;;
22219;SDS011;11279;48.364;10.904;2022-10-16T02:19:16;7.27;;;3.13;;
22219;SDS011;11279;48.364;10.904;2022-10-16T02:20:20;7.57;;;2.95;;
22219;SDS011;11279;48.364;10.904;2022-10-16T02:21:35;6.20;;;3.00;;
22219;SDS011;11279;48.364;10.904;2022-10-16T02:22:40;5.55;;;2.72;;
22219;SDS011;11279;48.364;10.904;2022-10-16T02:23:51;6.82;;;2.50;;
22219;SDS011;11279;48.364;10.904;2022-10-16T02:26:17;7.95;;;2.55;;
22219;SDS011;11279;48.364;10.904;2022-10-16T02:28:46;4.30;;;2.50;;
22219;SDS011;11279;48.364;10.904;2022-10-16T02:29:50;4.72;;;2.35;;
22219;SDS011;11279;48.364;10.904;2022-10-16T02:30:57;7.47;;;3.42;;
22219;SDS011;11279;48.364;10.904;2022-10-16T02:32:01;6.75;;;3.65;;
22219;SDS011;11279;48.364;10.904;2022-10-16T02:33:03;5.68;;;2.92;;
22219;SDS011;11279;48.364;10.904;2022-10-16T02:34:05;7.05;;;2.85;;
22219;SDS011;11279;48.364;10.904;2022-10-16T02:35:07;8.30;;;2.70;;
22219;SDS011;11279;48.364;10.904;2022-10-16T02:36:08;5.13;;;2.72;;
22219;SDS011;11279;48.364;10.904;2022-10-16T02:37:09;6.10;;;2.58;;
22219;SDS011;11279;48.364;10.904;2022-10-16T02:38:10;5.40;;;2.80;;
22219;SDS011;11279;48.364;10.904;2022-10-16T02:39:11;3.95;;;2.58;;
22219;SDS011;11279;48.364;10.904;2022-10-16T02:40:12;5.70;;;2.80;;
22219;SDS011;11279;48.364;10.904;2022-10-16T02:41:13;4.83;;;2.77;;
22219;SDS011;11279;48.364;10.904;2022-10-16T02:42:15;5.95;;;2.95;;
22219;SDS011;11279;48.364;10.904;2022-10-16T02:43:17;5.43;;;2.72;;
22219;SDS011;11279;48.364;10.904;2022-10-16T02:44:18;4.57;;;2.53;;
22219;SDS011;11279;48.364;10.904;2022-10-16T02:45:19;6.40;;;2.73;;
22219;SDS011;11279;48.364;10.904;2022-10-16T02:46:20;4.73;;;2.70;;
22219;SDS011;11279;48.364;10.904;2022-10-16T02:47:20;4.50;;;2.80;;
22219;SDS011;11279;48.364;10.904;2022-10-16T02:48:21;5.60;;;2.70;;
22219;SDS011;11279;48.364;10.904;2022-10-16T02:49:21;6.03;;;2.63;;
22219;SDS011;11279;48.364;10.904;2022-10-16T02:50:22;4.47;;;2.43;;
22219;SDS011;11279;48.364;10.904;2022-10-16T02:51:22;6.97;;;2.63;;
22219;SDS011;11279;48.364;10.904;2022-10-16T02:52:23;6.23;;;2.60;;
22219;SDS011;11279;48.364;10.904;2022-10-16T02:53:23;4.00;;;2.43;;
22219;SDS011;11279;48.364;10.904;2022-10-16T02:54:24;6.47;;;2.37;;
22219;SDS011;11279;48.364;10.904;2022-10-16T02:55:24;4.60;;;2.40;;
22219;SDS011;11279;48.364;10.904;2022-10-16T02:56:24;6.27;;;3.07;;
22219;SDS011;11279;48.364;10.904;2022-10-16T02:57:25;6.30;;;2.60;;
22219;SDS011;11279;48.364;10.904;2022-10-16T02:58:26;6.90;;;2.50;;
22219;SDS011;11279;48.364;10.904;2022-10-16T02:59:26;5.07;;;2.70;;
22219;SDS011;11279;48.364;10.904;2022-10-16T03:00:27;7.37;;;2.67;;
22219;SDS011;11279;48.364;10.904;2022-10-16T03:01:28;7.50;;;2.67;;
22219;SDS011;11279;48.364;10.904;2022-10-16T03:02:28;4.10;;;2.60;;
22219;SDS011;11279;48.364;10.904;2022-10-16T03:03:29;6.30;;;2.80;;
22219;SDS011;11279;48.364;10.904;2022-10-16T03:04:29;6.50;;;2.33;;
22219;SDS011;11279;48.364;10.904;2022-10-16T03:05:30;3.67;;;2.40;;
22219;SDS011;11279;48.364;10.904;2022-10-16T03:06:30;5.27;;;2.73;;
22219;SDS011;11279;48.364;10.904;2022-10-16T03:07:31;4.27;;;2.50;;
22219;SDS011;11279;48.364;10.904;2022-10-16T03:08:31;11.77;;;2.83;;
22219;SDS011;11279;48.364;10.904;2022-10-16T03:09:31;6.60;;;2.50;;
22219;SDS011;11279;48.364;10.904;2022-10-16T03:10:32;7.97;;;2.47;;
22219;SDS011;11279;48.364;10.904;2022-10-16T03:11:32;5.57;;;3.03;;
22219;SDS011;11279;48.364;10.904;2022-10-16T03:12:33;6.23;;;2.60;;
22219;SDS011;11279;48.364;10.904;2022-10-16T03:13:33;7.60;;;2.77;;
22219;SDS011;11279;48.364;10.904;2022-10-16T03:14:34;6.33;;;2.60;;
22219;SDS011;11279;48.364;10.904;2022-10-16T03:15:34;6.33;;;2.40;;
22219;SDS011;11279;48.364;10.904;2022-10-16T03:16:34;7.30;;;2.77;;
22219;SDS011;11279;48.364;10.904;2022-10-16T03:17:35;7.83;;;2.10;;
22219;SDS011;11279;48.364;10.904;2022-10-16T03:18:35;3.70;;;2.40;;
22219;SDS011;11279;48.364;10.904;2022-10-16T03:19:36;3.10;;;2.40;;
22219;SDS011;11279;48.364;10.904;2022-10-16T03:20:36;8.63;;;2.27;;
22219;SDS011;11279;48.364;10.904;2022-10-16T03:21:37;5.87;;;2.07;;
22219;SDS011;11279;48.364;10.904;2022-10-16T03:22:37;3.83;;;2.40;;
22219;SDS011;11279;48.364;10.904;2022-10-16T03:23:38;3.60;;;2.23;;
22219;SDS011;11279;48.364;10.904;2022-10-16T03:24:38;7.50;;;2.70;;
22219;SDS011;11279;48.364;10.904;2022-10-16T03:25:39;4.43;;;2.30;;
22219;SDS011;11279;48.364;10.904;2022-10-16T03:26:39;4.67;;;2.33;;
22219;SDS011;11279;48.364;10.904;2022-10-16T03:27:40;3.60;;;2.13;;
22219;SDS011;11279;48.364;10.904;2022-10-16T03:28:40;3.77;;;2.13;;
22219;SDS011;11279;48.364;10.904;2022-10-16T03:29:41;5.47;;;2.50;;
22219;SDS011;11279;48.364;10.904;2022-10-16T03:30:42;4.63;;;2.27;;
22219;SDS011;11279;48.364;10.904;2022-10-16T03:31:43;3.88;;;2.25;;
22219;SDS011;11279;48.364;10.904;2022-10-16T03:32:44;4.23;;;2.30;;
22219;SDS011;11279;48.364;10.904;2022-10-16T03:33:44;3.87;;;1.97;;
22219;SDS011;11279;48.364;10.904;2022-10-16T03:34:45;3.67;;;2.10;;
22219;SDS011;11279;48.364;10.904;2022-10-16T03:35:50;6.83;;;2.17;;
22219;SDS011;11279;48.364;10.904;2022-10-16T03:36:54;4.05;;;2.03;;
22219;SDS011;11279;48.364;10.904;2022-10-16T03:37:55;8.33;;;2.87;;
22219;SDS011;11279;48.364;10.904;2022-10-16T03:38:56;3.92;;;2.22;;
22219;SDS011;11279;48.364;10.904;2022-10-16T03:39:56;4.40;;;2.30;;
22219;SDS011;11279;48.364;10.904;2022-10-16T03:40:57;5.10;;;2.37;;
22219;SDS011;11279;48.364;10.904;2022-10-16T03:41:57;3.97;;;2.07;;
22219;SDS011;11279;48.364;10.904;2022-10-16T03:42:58;3.40;;;2.40;;
22219;SDS011;11279;48.364;10.904;2022-10-16T03:43:59;6.30;;;2.33;;
22219;SDS011;11279;48.364;10.904;2022-10-16T03:44:59;4.40;;;2.30;;
22219;SDS011;11279;48.364;10.904;2022-10-16T03:46:00;6.27;;;2.20;;
22219;SDS011;11279;48.364;10.904;2022-10-16T03:47:00;8.20;;;2.60;;
22219;SDS011;11279;48.364;10.904;2022-10-16T03:48:00;4.33;;;2.40;;
22219;SDS011;11279;48.364;10.904;2022-10-16T03:49:02;5.25;;;2.47;;
22219;SDS011;11279;48.364;10.904;2022-10-16T03:50:03;4.57;;;2.27;;
22219;SDS011;11279;48.364;10.904;2022-10-16T03:51:04;4.10;;;2.20;;
22219;SDS011;11279;48.364;10.904;2022-10-16T03:52:05;4.83;;;2.10;;
22219;SDS011;11279;48.364;10.904;2022-10-16T03:53:05;5.20;;;2.43;;
22219;SDS011;11279;48.364;10.904;2022-10-16T03:54:05;2.67;;;2.10;;
22219;SDS011;11279;48.364;10.904;2022-10-16T03:55:06;5.00;;;2.20;;
22219;SDS011;11279;48.364;10.904;2022-10-16T03:56:07;5.80;;;2.28;;
22219;SDS011;11279;48.364;10.904;2022-10-16T03:57:08;5.07;;;2.33;;
22219;SDS011;11279;48.364;10.904;2022-10-16T03:58:08;5.10;;;2.43;;
22219;SDS011;11279;48.364;10.904;2022-10-16T03:59:08;5.03;;;2.40;;
22219;SDS011;11279;48.364;10.904;2022-10-16T04:00:09;7.63;;;2.67;;
22219;SDS011;11279;48.364;10.904;2022-10-16T04:01:10;4.53;;;2.30;;
22219;SDS011;11279;48.364;10.904;2022-10-16T04:02:11;7.87;;;2.53;;
22219;SDS011;11279;48.364;10.904;2022-10-16T04:03:11;7.17;;;2.00;;
22219;SDS011;11279;48.364;10.904;2022-10-16T04:04:12;6.50;;;2.10;;
22219;SDS011;11279;48.364;10.904;2022-10-16T04:05:12;6.07;;;2.37;;
22219;SDS011;11279;48.364;10.904;2022-10-16T04:06:12;6.33;;;2.60;;
22219;SDS011;11279;48.364;10.904;2022-10-16T04:07:13;3.50;;;2.00;;
22219;SDS011;11279;48.364;10.904;2022-10-16T04:08:13;5.83;;;2.60;;
22219;SDS011;11279;48.364;10.904;2022-10-16T04:09:14;6.83;;;2.50;;
22219;SDS011;11279;48.364;10.904;2022-10-16T04:10:14;2.90;;;2.03;;
22219;SDS011;11279;48.364;10.904;2022-10-16T04:11:15;5.93;;;2.20;;
22219;SDS011;11279;48.364;10.904;2022-10-16T04:12:15;6.27;;;2.30;;
22219;SDS011;11279;48.364;10.904;2022-10-16T04:13:16;3.63;;;2.10;;
22219;SDS011;11279;48.364;10.904;2022-10-16T04:14:16;8.20;;;2.30;;
22219;SDS011;11279;48.364;10.904;2022-10-16T04:15:17;3.47;;;2.03;;
22219;SDS011;11279;48.364;10.904;2022-10-16T04:16:17;5.90;;;2.30;;
22219;SDS011;11279;48.364;10.904;2022-10-16T04:17:18;5.53;;;2.23;;
22219;SDS011;11279;48.364;10.904;2022-10-16T04:18:18;5.07;;;2.23;;
22219;SDS011;11279;48.364;10.904;2022-10-16T04:19:18;5.20;;;1.90;;
22219;SDS011;11279;48.364;10.904;2022-10-16T04:20:19;6.33;;;2.20;;
22219;SDS011;11279;48.364;10.904;2022-10-16T04:21:19;4.20;;;2.50;;
22219;SDS011;11279;48.364;10.904;2022-10-16T04:22:20;3.53;;;2.40;;
22219;SDS011;11279;48.364;10.904;2022-10-16T04:23:20;7.07;;;2.40;;
22219;SDS011;11279;48.364;10.904;2022-10-16T04:24:22;6.65;;;2.97;;
22219;SDS011;11279;48.364;10.904;2022-10-16T04:25:23;5.47;;;2.50;;
22219;SDS011;11279;48.364;10.904;2022-10-16T04:26:23;9.10;;;2.40;;
22219;SDS011;11279;48.364;10.904;2022-10-16T04:27:24;3.63;;;2.30;;
22219;SDS011;11279;48.364;10.904;2022-10-16T04:28:24;6.73;;;2.30;;
22219;SDS011;11279;48.364;10.904;2022-10-16T04:29:25;5.10;;;2.77;;
22219;SDS011;11279;48.364;10.904;2022-10-16T04:30:25;7.77;;;2.33;;
22219;SDS011;11279;48.364;10.904;2022-10-16T04:31:26;9.17;;;2.50;;
22219;SDS011;11279;48.364;10.904;2022-10-16T04:32:26;3.10;;;2.10;;
22219;SDS011;11279;48.364;10.904;2022-10-16T04:33:27;4.60;;;2.33;;
22219;SDS011;11279;48.364;10.904;2022-10-16T04:34:27;4.57;;;2.37;;
22219;SDS011;11279;48.364;10.904;2022-10-16T04:35:27;4.17;;;2.30;;
22219;SDS011;11279;48.364;10.904;2022-10-16T04:36:28;5.50;;;2.40;;
22219;SDS011;11279;48.364;10.904;2022-10-16T04:37:28;6.10;;;2.70;;
22219;SDS011;11279;48.364;10.904;2022-10-16T04:38:29;6.93;;;2.43;;
22219;SDS011;11279;48.364;10.904;2022-10-16T04:39:29;3.80;;;2.30;;
22219;SDS011;11279;48.364;10.904;2022-10-16T04:40:30;4.97;;;2.30;;
22219;SDS011;11279;48.364;10.904;2022-10-16T04:41:33;3.30;;;2.10;;
22219;SDS011;11279;48.364;10.904;2022-10-16T04:42:33;3.40;;;2.27;;
22219;SDS011;11279;48.364;10.904;2022-10-16T04:43:34;4.20;;;2.20;;
22219;SDS011;11279;48.364;10.904;2022-10-16T04:44:34;4.23;;;2.13;;
22219;SDS011;11279;48.364;10.904;2022-10-16T04:45:35;4.90;;;2.40;;
22219;SDS011;11279;48.364;10.904;2022-10-16T04:46:35;6.70;;;2.17;;
22219;SDS011;11279;48.364;10.904;2022-10-16T04:47:36;5.23;;;2.50;;
22219;SDS011;11279;48.364;10.904;2022-10-16T04:48:36;4.40;;;2.33;;
22219;SDS011;11279;48.364;10.904;2022-10-16T04:49:37;3.97;;;2.30;;
22219;SDS011;11279;48.364;10.904;2022-10-16T04:50:37;7.13;;;2.33;;
22219;SDS011;11279;48.364;10.904;2022-10-16T04:51:38;3.73;;;2.00;;
22219;SDS011;11279;48.364;10.904;2022-10-16T04:52:38;6.03;;;3.00;;
22219;SDS011;11279;48.364;10.904;2022-10-16T04:53:38;5.27;;;2.17;;
22219;SDS011;11279;48.364;10.904;2022-10-16T04:54:39;4.67;;;2.17;;
22219;SDS011;11279;48.364;10.904;2022-10-16T04:55:40;5.30;;;2.00;;
22219;SDS011;11279;48.364;10.904;2022-10-16T04:56:41;7.70;;;2.10;;
22219;SDS011;11279;48.364;10.904;2022-10-16T04:57:47;4.63;;;1.88;;
22219;SDS011;11279;48.364;10.904;2022-10-16T04:58:47;3.83;;;2.30;;
22219;SDS011;11279;48.364;10.904;2022-10-16T04:59:48;3.77;;;2.53;;
22219;SDS011;11279;48.364;10.904;2022-10-16T05:00:48;2.60;;;1.97;;
22219;SDS011;11279;48.364;10.904;2022-10-16T05:01:49;4.27;;;2.23;;
22219;SDS011;11279;48.364;10.904;2022-10-16T05:02:50;3.90;;;2.10;;
22219;SDS011;11279;48.364;10.904;2022-10-16T05:03:50;4.30;;;1.93;;
22219;SDS011;11279;48.364;10.904;2022-10-16T05:04:51;7.50;;;2.57;;
22219;SDS011;11279;48.364;10.904;2022-10-16T05:05:52;8.03;;;2.37;;
22219;SDS011;11279;48.364;10.904;2022-10-16T05:06:52;5.30;;;2.40;;
22219;SDS011;11279;48.364;10.904;2022-10-16T05:07:53;3.80;;;2.30;;
22219;SDS011;11279;48.364;10.904;2022-10-16T05:08:53;4.67;;;2.27;;
22219;SDS011;11279;48.364;10.904;2022-10-16T05:09:54;3.90;;;2.50;;
22219;SDS011;11279;48.364;10.904;2022-10-16T05:10:54;6.50;;;2.50;;
22219;SDS011;11279;48.364;10.904;2022-10-16T05:11:55;3.77;;;2.43;;
22219;SDS011;11279;48.364;10.904;2022-10-16T05:12:55;5.07;;;2.30;;
22219;SDS011;11279;48.364;10.904;2022-10-16T05:13:56;3.93;;;2.10;;
22219;SDS011;11279;48.364;10.904;2022-10-16T05:14:56;3.63;;;2.50;;
22219;SDS011;11279;48.364;10.904;2022-10-16T05:15:58;7.22;;;2.45;;
22219;SDS011;11279;48.364;10.904;2022-10-16T05:16:59;6.67;;;2.30;;
22219;SDS011;11279;48.364;10.904;2022-10-16T05:17:59;4.38;;;2.22;;
22219;SDS011;11279;48.364;10.904;2022-10-16T05:19:00;7.33;;;2.97;;
22219;SDS011;11279;48.364;10.904;2022-10-16T05:20:01;3.97;;;2.40;;
22219;SDS011;11279;48.364;10.904;2022-10-16T05:21:01;6.27;;;2.40;;
22219;SDS011;11279;48.364;10.904;2022-10-16T05:22:02;10.32;;;2.80;;
22219;SDS011;11279;48.364;10.904;2022-10-16T05:23:03;6.77;;;2.97;;
22219;SDS011;11279;48.364;10.904;2022-10-16T05:24:03;5.70;;;2.63;;
22219;SDS011;11279;48.364;10.904;2022-10-16T05:25:04;4.57;;;2.50;;
22219;SDS011;11279;48.364;10.904;2022-10-16T05:26:05;4.47;;;2.03;;
22219;SDS011;11279;48.364;10.904;2022-10-16T05:27:05;3.60;;;2.30;;
22219;SDS011;11279;48.364;10.904;2022-10-16T05:28:05;4.30;;;2.20;;
22219;SDS011;11279;48.364;10.904;2022-10-16T05:29:06;4.07;;;2.13;;
22219;SDS011;11279;48.364;10.904;2022-10-16T05:30:06;7.20;;;2.67;;
22219;SDS011;11279;48.364;10.904;2022-10-16T05:31:08;4.03;;;2.40;;
22219;SDS011;11279;48.364;10.904;2022-10-16T05:32:09;3.15;;;2.50;;
22219;SDS011;11279;48.364;10.904;2022-10-16T05:33:10;6.87;;;2.30;;
22219;SDS011;11279;48.364;10.904;2022-10-16T05:34:10;5.00;;;2.53;;
22219;SDS011;11279;48.364;10.904;2022-10-16T05:35:10;3.47;;;2.23;;
22219;SDS011;11279;48.364;10.904;2022-10-16T05:36:11;4.53;;;2.50;;
22219;SDS011;11279;48.364;10.904;2022-10-16T05:37:12;7.03;;;2.47;;
22219;SDS011;11279;48.364;10.904;2022-10-16T05:38:13;5.80;;;2.10;;
22219;SDS011;11279;48.364;10.904;2022-10-16T05:39:14;5.53;;;2.50;;
22219;SDS011;11279;48.364;10.904;2022-10-16T05:40:15;4.43;;;2.80;;
22219;SDS011;11279;48.364;10.904;2022-10-16T05:41:17;4.80;;;2.20;;
22219;SDS011;11279;48.364;10.904;2022-10-16T05:42:21;4.00;;;2.33;;
22219;SDS011;11279;48.364;10.904;2022-10-16T05:43:21;4.00;;;2.33;;
22219;SDS011;11279;48.364;10.904;2022-10-16T05:44:22;6.77;;;2.50;;
22219;SDS011;11279;48.364;10.904;2022-10-16T05:45:22;8.60;;;2.87;;
22219;SDS011;11279;48.364;10.904;2022-10-16T05:46:23;6.30;;;2.47;;
22219;SDS011;11279;48.364;10.904;2022-10-16T05:47:23;5.37;;;2.33;;
22219;SDS011;11279;48.364;10.904;2022-10-16T05:48:24;4.83;;;2.50;;
22219;SDS011;11279;48.364;10.904;2022-10-16T05:49:24;4.87;;;2.40;;
22219;SDS011;11279;48.364;10.904;2022-10-16T05:50:25;4.83;;;2.50;;
22219;SDS011;11279;48.364;10.904;2022-10-16T05:51:26;3.38;;;2.35;;
22219;SDS011;11279;48.364;10.904;2022-10-16T05:52:27;4.60;;;2.70;;
22219;SDS011;11279;48.364;10.904;2022-10-16T05:53:28;5.43;;;2.10;;
22219;SDS011;11279;48.364;10.904;2022-10-16T05:54:29;5.05;;;2.20;;
22219;SDS011;11279;48.364;10.904;2022-10-16T05:55:29;7.83;;;2.50;;
22219;SDS011;11279;48.364;10.904;2022-10-16T05:56:29;4.60;;;2.40;;
22219;SDS011;11279;48.364;10.904;2022-10-16T05:57:30;5.33;;;2.40;;
22219;SDS011;11279;48.364;10.904;2022-10-16T05:58:32;5.27;;;2.03;;
22219;SDS011;11279;48.364;10.904;2022-10-16T05:59:34;3.50;;;2.38;;
22219;SDS011;11279;48.364;10.904;2022-10-16T06:00:34;6.97;;;2.53;;
22219;SDS011;11279;48.364;10.904;2022-10-16T06:01:35;3.63;;;2.63;;
22219;SDS011;11279;48.364;10.904;2022-10-16T06:02:35;5.93;;;2.33;;
22219;SDS011;11279;48.364;10.904;2022-10-16T06:03:36;4.17;;;2.07;;
22219;SDS011;11279;48.364;10.904;2022-10-16T06:04:36;3.93;;;1.90;;
22219;SDS011;11279;48.364;10.904;2022-10-16T06:05:37;4.87;;;2.23;;
22219;SDS011;11279;48.364;10.904;2022-10-16T06:06:37;7.73;;;2.20;;
22219;SDS011;11279;48.364;10.904;2022-10-16T06:07:38;4.43;;;1.70;;
22219;SDS011;11279;48.364;10.904;2022-10-16T06:08:39;3.60;;;2.20;;
22219;SDS011;11279;48.364;10.904;2022-10-16T06:09:40;4.65;;;2.22;;
22219;SDS011;11279;48.364;10.904;2022-10-16T06:10:40;4.77;;;2.17;;
22219;SDS011;11279;48.364;10.904;2022-10-16T06:11:40;4.47;;;1.97;;
22219;SDS011;11279;48.364;10.904;2022-10-16T06:12:41;3.47;;;2.00;;
22219;SDS011;11279;48.364;10.904;2022-10-16T06:13:41;4.07;;;2.00;;
22219;SDS011;11279;48.364;10.904;2022-10-16T06:14:42;5.73;;;2.37;;
22219;SDS011;11279;48.364;10.904;2022-10-16T06:15:43;3.53;;;2.30;;
22219;SDS011;11279;48.364;10.904;2022-10-16T06:16:43;3.83;;;2.40;;
22219;SDS011;11279;48.364;10.904;2022-10-16T06:17:44;3.27;;;2.07;;
22219;SDS011;11279;48.364;10.904;2022-10-16T06:18:44;4.87;;;1.97;;
22219;SDS011;11279;48.364;10.904;2022-10-16T06:19:44;3.33;;;2.10;;
22219;SDS011;11279;48.364;10.904;2022-10-16T06:20:45;3.07;;;1.97;;
22219;SDS011;11279;48.364;10.904;2022-10-16T06:21:45;3.03;;;2.10;;